createdAt,value
2023-03-02T00:01:10.587Z,99.90
2023-03-02T00:03:40.656Z,99.90
2023-03-02T00:06:08.843Z,99.90
2023-03-02T00:08:36.871Z,99.90
2023-03-02T00:11:03.611Z,99.90
2023-03-02T00:13:31.869Z,99.90
2023-03-02T00:15:58.746Z,99.90
2023-03-02T00:18:25.538Z,99.90
2023-03-02T00:20:52.236Z,99.90
2023-03-02T00:23:19.100Z,99.90
2023-03-02T00:25:45.833Z,99.90
2023-03-02T00:28:12.505Z,99.90
2023-03-02T00:30:39.527Z,99.90
2023-03-02T00:33:06.166Z,99.90
2023-03-02T00:35:38.035Z,99.90
2023-03-02T00:38:04.774Z,99.90
2023-03-02T00:40:31.427Z,99.90
2023-03-02T00:42:58.108Z,99.90
2023-03-02T00:45:24.813Z,99.90
2023-03-02T00:47:51.533Z,99.90
2023-03-02T00:50:18.253Z,99.90
2023-03-02T00:52:44.917Z,99.90
2023-03-02T00:55:11.633Z,99.90
2023-03-02T01:00:05.974Z,99.90
2023-03-02T01:07:28.318Z,99.90
2023-03-02T01:09:55.023Z,99.90
2023-03-02T01:12:21.842Z,99.90
2023-03-02T01:14:49.081Z,99.90
2023-03-02T01:17:15.753Z,99.90
2023-03-02T01:19:43.221Z,99.90
2023-03-02T01:22:10.220Z,99.90
2023-03-02T01:27:04.137Z,99.90
2023-03-02T01:29:30.783Z,99.90
2023-03-02T01:31:57.619Z,99.90
2023-03-02T01:34:24.489Z,99.90
2023-03-02T01:36:51.153Z,99.90
2023-03-02T01:39:17.962Z,99.90
2023-03-02T01:41:45.939Z,99.90
2023-03-02T01:44:45.817Z,99.90
2023-03-02T01:47:25.597Z,99.90
2023-03-02T01:50:03.047Z,99.90
2023-03-02T01:52:33.442Z,99.90
2023-03-02T01:55:03.771Z,99.90
2023-03-02T01:57:34.143Z,99.90
2023-03-02T02:00:08.503Z,99.90
2023-03-02T02:02:36.427Z,99.90
2023-03-02T02:05:04.228Z,99.90
2023-03-02T02:07:31.392Z,99.90
2023-03-02T02:09:58.783Z,99.90
2023-03-02T02:12:25.615Z,99.90
2023-03-02T02:14:52.375Z,99.90
2023-03-02T02:17:19.806Z,99.90
2023-03-02T02:20:24.192Z,99.90
2023-03-02T02:23:08.807Z,99.90
2023-03-02T02:25:40.178Z,99.90
2023-03-02T02:28:12.476Z,99.90
2023-03-02T02:30:41.414Z,99.90
2023-03-02T02:33:14.871Z,99.90
2023-03-02T02:35:42.149Z,99.90
2023-03-02T02:38:11.537Z,99.90
2023-03-02T02:41:00.177Z,99.90
2023-03-02T02:43:30.665Z,99.90
2023-03-02T02:45:58.980Z,99.90
2023-03-02T02:48:31.063Z,99.90
2023-03-02T02:51:03.248Z,99.90
2023-03-02T02:53:35.040Z,99.90
2023-03-02T02:56:02.893Z,99.90
2023-03-02T02:58:39.632Z,99.90
2023-03-02T03:01:06.895Z,99.90
2023-03-02T03:03:37.316Z,99.90
2023-03-02T03:06:07.613Z,99.90
2023-03-02T03:08:43.404Z,99.90
2023-03-02T03:11:15.759Z,99.90
2023-03-02T03:13:44.000Z,99.90
2023-03-02T03:16:15.295Z,99.90
2023-03-02T03:18:44.724Z,99.90
2023-03-02T03:21:11.500Z,99.90
2023-03-02T03:23:38.677Z,99.90
2023-03-02T03:26:06.168Z,99.90
2023-03-02T03:28:33.759Z,99.90
2023-03-02T03:31:00.500Z,99.90
2023-03-02T03:33:27.672Z,99.90
2023-03-02T03:35:54.588Z,99.90
2023-03-02T03:38:21.286Z,99.90
2023-03-02T03:40:47.931Z,99.90
2023-03-02T03:43:15.200Z,99.90
2023-03-02T03:45:41.896Z,99.90
2023-03-02T03:48:08.849Z,99.90
2023-03-02T03:50:36.440Z,99.90
2023-03-02T03:53:03.986Z,99.90
2023-03-02T03:55:31.108Z,99.90
2023-03-02T03:57:57.760Z,99.90
2023-03-02T04:00:24.481Z,99.90
2023-03-02T04:02:51.380Z,99.90
2023-03-02T04:05:18.489Z,99.90
2023-03-02T04:07:45.209Z,99.90
2023-03-02T04:10:12.315Z,99.90
2023-03-02T04:12:41.243Z,99.90
2023-03-02T04:15:13.354Z,99.90
2023-03-02T04:17:40.159Z,99.90
2023-03-02T04:20:10.450Z,99.90
2023-03-02T04:22:37.333Z,99.90
2023-03-02T04:25:05.080Z,99.90
2023-03-02T04:27:31.767Z,99.90
2023-03-02T04:29:58.421Z,99.90
2023-03-02T04:32:25.138Z,99.90
2023-03-02T04:34:51.794Z,99.90
2023-03-02T04:37:18.476Z,99.90
2023-03-02T04:39:47.347Z,99.90
2023-03-02T04:42:14.094Z,99.90
2023-03-02T04:44:40.786Z,99.90
2023-03-02T04:47:07.459Z,99.90
2023-03-02T04:49:34.114Z,99.90
2023-03-02T04:52:00.838Z,99.90
2023-03-02T04:54:27.888Z,99.90
2023-03-02T04:56:55.647Z,99.90
2023-03-02T04:59:25.998Z,99.90
2023-03-02T05:01:58.944Z,99.90
2023-03-02T05:04:27.158Z,99.90
2023-03-02T05:06:54.335Z,99.90
2023-03-02T05:09:27.067Z,99.90
2023-03-02T05:11:58.687Z,99.90
2023-03-02T05:14:26.570Z,99.90
2023-03-02T05:16:54.007Z,99.90
2023-03-02T05:19:20.799Z,99.90
2023-03-02T05:21:47.514Z,99.90
2023-03-02T05:24:14.735Z,99.90
2023-03-02T05:26:42.058Z,99.90
2023-03-02T05:29:08.736Z,99.90
2023-03-02T05:31:41.372Z,99.90
2023-03-02T05:34:10.129Z,99.90
2023-03-02T05:36:37.753Z,99.90
2023-03-02T05:39:05.827Z,99.90
2023-03-02T05:41:32.533Z,99.90
2023-03-02T05:43:59.180Z,99.90
2023-03-02T05:46:26.562Z,99.90
2023-03-02T05:48:53.873Z,99.90
2023-03-02T05:51:20.597Z,99.90
2023-03-02T05:53:47.288Z,99.90
2023-03-02T05:56:14.082Z,99.90
2023-03-02T05:58:40.797Z,99.90
2023-03-02T06:01:10.174Z,99.90
2023-03-02T06:03:37.143Z,99.90
2023-03-02T06:06:03.944Z,99.90
2023-03-02T06:08:30.832Z,99.90
2023-03-02T06:10:57.677Z,99.90
2023-03-02T06:13:24.390Z,99.90
2023-03-02T06:15:51.063Z,99.90
2023-03-02T06:18:17.853Z,99.90
2023-03-02T06:20:44.546Z,99.90
2023-03-02T06:23:11.982Z,99.90
2023-03-02T06:25:41.242Z,99.90
2023-03-02T06:28:07.917Z,99.90
2023-03-02T06:30:34.599Z,99.90
2023-03-02T06:33:01.660Z,99.90
2023-03-02T06:35:29.116Z,99.90
2023-03-02T06:40:22.994Z,99.90
2023-03-02T06:42:50.106Z,99.90
2023-03-02T06:45:16.919Z,99.90
2023-03-02T06:47:43.624Z,99.90
2023-03-02T06:50:10.961Z,99.90
2023-03-02T06:52:37.675Z,99.90
2023-03-02T06:55:04.993Z,99.90
2023-03-02T06:57:34.238Z,99.90
2023-03-02T07:00:02.597Z,99.90
2023-03-02T07:02:29.282Z,99.90
2023-03-02T07:04:55.968Z,99.90
2023-03-02T07:07:22.618Z,99.90
2023-03-02T07:09:49.274Z,99.90
2023-03-02T07:12:15.919Z,99.90
2023-03-02T07:14:42.575Z,99.90
2023-03-02T07:17:09.302Z,99.90
2023-03-02T07:19:40.657Z,99.90
2023-03-02T07:22:07.678Z,99.90
2023-03-02T07:24:34.806Z,99.90
2023-03-02T07:27:01.536Z,99.90
2023-03-02T07:29:28.254Z,99.90
2023-03-02T07:34:24.817Z,99.90
2023-03-02T07:36:52.020Z,99.90
2023-03-02T07:39:19.215Z,99.90
2023-03-02T07:41:46.384Z,99.90
2023-03-02T07:46:40.237Z,99.90
2023-03-02T07:49:06.937Z,99.90
2023-03-02T07:51:33.829Z,99.90
2023-03-02T07:54:02.851Z,99.90
2023-03-02T07:56:29.638Z,99.90
2023-03-02T07:58:56.381Z,99.90
2023-03-02T08:01:23.190Z,99.90
2023-03-02T08:03:49.952Z,99.90
2023-03-02T08:06:17.314Z,99.90
2023-03-02T08:08:44.080Z,99.90
2023-03-02T08:11:13.824Z,99.90
2023-03-02T08:18:38.080Z,99.90
2023-03-02T08:21:11.363Z,99.90
2023-03-02T08:23:38.111Z,99.90
2023-03-02T08:28:31.893Z,99.90
2023-03-02T08:33:41.449Z,99.90
2023-03-02T08:38:41.859Z,99.90
2023-03-02T08:41:11.980Z,99.90
2023-03-02T08:43:39.011Z,99.90
2023-03-02T08:46:06.200Z,99.90
2023-03-02T08:48:33.271Z,99.90
2023-03-02T08:54:12.581Z,99.90
2023-03-02T08:56:40.261Z,99.90
2023-03-02T09:01:38.626Z,99.90
2023-03-02T09:04:08.065Z,99.90
2023-03-02T09:06:38.465Z,99.90
2023-03-02T09:09:05.953Z,99.90
2023-03-02T09:11:33.711Z,99.90
2023-03-02T09:14:01.048Z,99.90
2023-03-02T09:18:54.991Z,99.90
2023-03-02T09:21:22.504Z,99.90
2023-03-02T09:23:53.594Z,99.90
2023-03-02T09:26:20.644Z,99.90
2023-03-02T09:28:47.400Z,99.90
2023-03-02T09:31:14.286Z,99.90
2023-03-02T09:33:41.195Z,99.90
2023-03-02T09:36:09.918Z,99.90
2023-03-02T09:38:36.609Z,99.90
2023-03-02T09:41:09.424Z,99.90
2023-03-02T09:44:24.873Z,99.90
2023-03-02T09:47:09.334Z,99.90
2023-03-02T09:50:00.569Z,99.90
2023-03-02T09:52:40.378Z,99.90
2023-03-02T09:55:18.410Z,99.90
2023-03-02T10:00:20.297Z,99.90
2023-03-02T10:02:50.021Z,99.90
2023-03-02T10:05:39.045Z,99.90
2023-03-02T10:08:11.393Z,99.90
2023-03-02T10:10:48.988Z,99.90
2023-03-02T10:13:42.232Z,99.90
2023-03-02T10:16:20.983Z,99.90
2023-03-02T10:19:05.650Z,99.90
2023-03-02T10:21:40.260Z,99.90
2023-03-02T10:24:36.143Z,99.90
2023-03-02T10:27:28.241Z,99.90
2023-03-02T10:30:25.514Z,99.90
2023-03-02T10:32:52.750Z,99.90
2023-03-02T10:35:24.837Z,99.90
2023-03-02T10:37:58.069Z,99.90
2023-03-02T10:40:30.960Z,99.90
2023-03-02T10:42:58.180Z,99.90
2023-03-02T10:50:31.511Z,99.90
2023-03-02T10:55:28.643Z,99.90
2023-03-02T11:03:06.199Z,99.90
2023-03-02T11:05:34.212Z,99.90
2023-03-02T11:08:08.564Z,99.90
2023-03-02T11:10:37.992Z,99.90
2023-03-02T11:13:20.551Z,99.90
2023-03-02T11:18:24.484Z,99.90
2023-03-02T11:20:56.172Z,99.90
2023-03-02T11:23:40.079Z,99.90
2023-03-02T11:26:23.093Z,99.90
2023-03-02T11:28:56.759Z,99.90
2023-03-02T11:31:41.537Z,99.90
2023-03-02T11:34:27.490Z,99.90
2023-03-02T11:37:13.402Z,99.90
2023-03-02T11:40:00.451Z,99.90
2023-03-02T11:42:32.071Z,99.90
2023-03-02T11:45:33.028Z,99.90
2023-03-02T11:48:06.884Z,99.90
2023-03-02T11:50:40.979Z,99.90
2023-03-02T11:53:15.684Z,99.90
2023-03-02T11:55:48.717Z,99.90
2023-03-02T11:58:21.742Z,99.90
2023-03-02T12:00:49.624Z,98.80
2023-03-02T12:03:16.245Z,98.70
2023-03-02T12:05:53.414Z,97.50
2023-03-02T12:08:20.015Z,97.90
2023-03-02T12:11:28.139Z,97.00
2023-03-02T12:13:54.752Z,97.30
2023-03-02T12:16:38.065Z,97.80
2023-03-02T12:19:16.925Z,96.20
2023-03-02T12:27:01.272Z,95.10
2023-03-02T12:29:40.065Z,95.40
2023-03-02T12:32:25.492Z,94.60
2023-03-02T12:35:00.147Z,94.50
2023-03-02T12:37:31.692Z,94.00
2023-03-02T12:40:22.782Z,93.60
2023-03-02T12:43:27.104Z,93.40
2023-03-02T12:46:16.027Z,94.50
2023-03-02T12:51:18.514Z,92.90
2023-03-02T12:58:52.637Z,91.20
2023-03-02T13:03:52.500Z,91.00
2023-03-02T13:11:40.571Z,88.70
2023-03-02T13:14:19.584Z,86.70
2023-03-02T13:20:10.563Z,86.10
2023-03-02T13:22:37.335Z,84.60
2023-03-02T13:27:35.050Z,82.30
2023-03-02T13:30:12.946Z,78.50
2023-03-02T13:32:43.140Z,79.20
2023-03-02T13:35:26.720Z,85.30
2023-03-02T13:38:24.205Z,83.00
2023-03-02T13:40:54.408Z,77.50
2023-03-02T13:43:34.125Z,82.50
2023-03-02T13:46:03.943Z,77.20
2023-03-02T13:48:31.365Z,77.80
2023-03-02T13:51:00.886Z,77.40
2023-03-02T13:53:30.140Z,76.70
2023-03-02T13:56:00.186Z,74.90
2023-03-02T13:58:29.649Z,74.30
2023-03-02T14:00:56.452Z,73.50
2023-03-02T14:03:29.413Z,74.90
2023-03-02T14:05:57.481Z,73.30
2023-03-02T14:08:24.266Z,72.50
2023-03-02T14:10:54.024Z,73.50
2023-03-02T14:13:25.279Z,72.90
2023-03-02T14:15:53.326Z,73.50
2023-03-02T14:18:28.728Z,71.20
2023-03-02T14:20:56.897Z,74.00
2023-03-02T14:23:26.328Z,74.40
2023-03-02T14:25:55.487Z,73.10
2023-03-02T14:28:29.911Z,72.80
2023-03-02T14:30:58.028Z,71.20
2023-03-02T14:33:25.633Z,72.30
2023-03-02T14:35:56.113Z,71.40
2023-03-02T14:38:25.948Z,71.90
2023-03-02T14:40:52.932Z,72.50
2023-03-02T14:43:21.260Z,71.90
2023-03-02T14:45:48.096Z,70.80
2023-03-02T14:48:15.056Z,69.30
2023-03-02T14:50:48.856Z,70.90
2023-03-02T14:53:22.953Z,70.50
2023-03-02T14:55:49.696Z,69.50
2023-03-02T14:58:24.058Z,69.60
2023-03-02T15:03:22.591Z,85.60
2023-03-02T15:06:00.941Z,90.00
2023-03-02T15:08:28.560Z,87.60
2023-03-02T15:10:55.390Z,84.40
2023-03-02T15:13:22.096Z,85.50
2023-03-02T15:15:49.947Z,85.70
2023-03-02T15:18:19.825Z,88.00
2023-03-02T15:20:46.989Z,86.70
2023-03-02T15:23:13.867Z,87.60
2023-03-02T15:25:40.974Z,91.40
2023-03-02T15:28:10.512Z,90.00
2023-03-02T15:30:38.798Z,87.40
2023-03-02T15:33:05.927Z,89.60
2023-03-02T15:35:32.926Z,91.70
2023-03-02T15:38:07.599Z,78.80
2023-03-02T15:40:37.272Z,77.90
2023-03-02T15:43:09.624Z,88.10
2023-03-02T15:45:44.270Z,90.70
2023-03-02T15:50:40.396Z,73.80
2023-03-02T15:53:07.148Z,72.90
2023-03-02T16:00:31.132Z,95.70
2023-03-02T16:02:58.179Z,93.10
2023-03-02T16:05:25.350Z,92.80
2023-03-02T16:07:52.542Z,86.70
2023-03-02T16:10:20.712Z,90.10
2023-03-02T16:12:47.657Z,90.80
2023-03-02T16:15:20.019Z,90.80
2023-03-02T16:17:46.931Z,88.30
2023-03-02T16:20:14.086Z,85.60
2023-03-02T16:22:40.956Z,89.00
2023-03-02T16:25:08.060Z,91.20
2023-03-02T16:27:34.887Z,87.30
2023-03-02T16:30:02.228Z,91.80
2023-03-02T16:32:30.323Z,91.40
2023-03-02T16:34:58.187Z,91.80
2023-03-02T16:37:25.171Z,93.20
2023-03-02T16:39:51.992Z,93.70
2023-03-02T16:42:18.839Z,92.50
2023-03-02T16:44:46.028Z,94.10
2023-03-02T16:47:12.723Z,92.80
2023-03-02T16:49:39.424Z,93.60
2023-03-02T16:52:06.141Z,94.60
2023-03-02T16:54:32.826Z,94.50
2023-03-02T16:56:59.560Z,94.80
2023-03-02T16:59:26.224Z,96.40
2023-03-02T17:01:52.981Z,95.80
2023-03-02T17:04:21.288Z,96.90
2023-03-02T17:07:03.649Z,98.70
2023-03-02T17:09:30.839Z,97.60
2023-03-02T17:11:57.691Z,98.50
2023-03-02T17:14:24.560Z,99.20
2023-03-02T17:16:51.307Z,99.10
2023-03-02T17:19:18.006Z,99.30
2023-03-02T17:21:44.732Z,99.90
2023-03-02T17:24:11.608Z,99.90
2023-03-02T17:26:38.401Z,99.90
2023-03-02T17:29:08.750Z,99.90
2023-03-02T17:31:35.519Z,99.90
2023-03-02T17:34:02.328Z,99.90
2023-03-02T17:36:28.997Z,99.90
2023-03-02T17:38:55.657Z,99.90
2023-03-02T17:41:22.397Z,99.90
2023-03-02T17:43:49.106Z,99.90
2023-03-02T17:46:20.732Z,99.90
2023-03-02T17:48:49.494Z,99.90
2023-03-02T17:51:17.231Z,99.90
2023-03-02T17:53:46.043Z,99.90
2023-03-02T17:56:15.016Z,99.90
2023-03-02T17:58:45.306Z,99.90
2023-03-02T18:01:13.472Z,99.90
2023-03-02T18:03:40.244Z,99.90
2023-03-02T18:06:07.182Z,99.90
2023-03-02T18:08:33.907Z,99.90
2023-03-02T18:11:00.625Z,99.90
2023-03-02T18:13:27.374Z,99.90
2023-03-02T18:15:54.184Z,99.90
2023-03-02T18:18:21.007Z,99.90
2023-03-02T18:20:47.721Z,99.90
2023-03-02T18:23:14.504Z,99.90
2023-03-02T18:25:41.178Z,99.90
2023-03-02T18:28:07.869Z,99.90
2023-03-02T18:30:34.626Z,99.90
2023-03-02T18:33:01.582Z,99.90
2023-03-02T18:35:28.309Z,99.90
2023-03-02T18:37:55.083Z,99.90
2023-03-02T18:40:22.188Z,99.90
2023-03-02T18:42:48.901Z,99.90
2023-03-02T18:45:26.443Z,99.90
2023-03-02T18:47:53.261Z,99.90
2023-03-02T18:50:20.474Z,99.90
2023-03-02T18:52:49.027Z,99.90
2023-03-02T18:55:18.230Z,99.90
2023-03-02T18:57:45.303Z,99.90
2023-03-02T19:00:17.276Z,99.90
2023-03-02T19:02:44.101Z,99.90
2023-03-02T19:05:11.034Z,99.90
2023-03-02T19:07:37.782Z,99.90
2023-03-02T19:10:05.008Z,99.90
2023-03-02T19:12:31.638Z,99.90
2023-03-02T19:14:59.226Z,99.90
2023-03-02T19:17:25.916Z,99.90
2023-03-02T19:19:52.833Z,99.90
2023-03-02T19:22:19.494Z,99.90
2023-03-02T19:24:46.769Z,99.90
2023-03-02T19:27:14.386Z,99.90
2023-03-02T19:29:41.399Z,99.90
2023-03-02T19:32:08.419Z,99.90
2023-03-02T19:34:35.133Z,99.90
2023-03-02T19:37:02.705Z,99.90
2023-03-02T19:39:29.368Z,99.90
2023-03-02T19:41:56.051Z,99.90
2023-03-02T19:44:25.594Z,99.90
2023-03-02T19:46:52.932Z,99.90
2023-03-02T19:49:19.635Z,99.90
2023-03-02T19:51:46.318Z,99.90
2023-03-02T19:54:13.002Z,99.90
2023-03-02T19:56:43.050Z,99.90
2023-03-02T19:59:11.142Z,99.90
2023-03-02T20:01:37.900Z,99.90
2023-03-02T20:04:05.242Z,99.90
2023-03-02T20:06:34.549Z,99.90
2023-03-02T20:09:04.197Z,99.90
2023-03-02T20:11:31.325Z,99.90
2023-03-02T20:14:04.947Z,99.90
2023-03-02T20:16:34.244Z,99.90
2023-03-02T20:19:01.961Z,99.90
2023-03-02T20:21:32.848Z,99.90
2023-03-02T20:23:59.723Z,99.90
2023-03-02T20:26:27.365Z,99.90
2023-03-02T20:28:56.766Z,99.90
2023-03-02T20:31:24.842Z,99.90
2023-03-02T20:33:54.298Z,99.90
2023-03-02T20:36:28.072Z,99.90
2023-03-02T20:38:59.540Z,99.90
2023-03-02T20:41:26.498Z,99.90
2023-03-02T20:43:53.512Z,99.90
2023-03-02T20:46:27.123Z,99.90
2023-03-02T20:48:54.315Z,99.90
2023-03-02T20:51:22.216Z,99.90
2023-03-02T20:53:48.989Z,99.90
2023-03-02T20:56:18.188Z,99.90
2023-03-02T20:58:46.678Z,99.90
2023-03-02T21:01:15.504Z,99.90
2023-03-02T21:03:44.810Z,99.90
2023-03-02T21:06:12.930Z,99.90
2023-03-02T21:08:40.946Z,99.90
2023-03-02T21:11:10.644Z,99.90
2023-03-02T21:13:39.138Z,99.90
2023-03-02T21:16:08.494Z,99.90
2023-03-02T21:18:35.384Z,99.90
2023-03-02T21:21:02.833Z,99.90
2023-03-02T21:23:30.022Z,99.90
2023-03-02T21:25:57.095Z,99.90
2023-03-02T21:28:23.767Z,99.90
2023-03-02T21:30:50.545Z,99.90
2023-03-02T21:33:17.229Z,99.90
2023-03-02T21:35:46.311Z,99.90
2023-03-02T21:38:13.091Z,99.90
2023-03-02T21:40:45.676Z,99.90
2023-03-02T21:43:14.193Z,99.90
2023-03-02T21:45:41.128Z,99.90
2023-03-02T21:48:08.631Z,99.90
2023-03-02T21:50:37.934Z,99.90
2023-03-02T21:53:05.703Z,99.90
2023-03-02T21:55:33.030Z,99.90
2023-03-02T21:57:59.846Z,99.90
2023-03-02T22:00:35.803Z,99.90
2023-03-02T22:03:03.521Z,99.90
2023-03-02T22:05:30.851Z,99.90
2023-03-02T22:07:57.827Z,99.90
2023-03-02T22:10:45.162Z,99.90
2023-03-02T22:13:30.509Z,99.90
2023-03-02T22:16:12.700Z,99.90
2023-03-02T22:18:39.711Z,99.90
